Rogue Elk, Oregon
Current Conditions -  °F | °C
As of 8:54 AM on Saturday 25 Oct 2014 (Local Time) from KEUG Reporting Station
Broken Clouds Broken Clouds  
Wind Chill: 57°   Ceiling: 8000
Heat Index: 57°   Visibility: 10mi
Dew Point: 51°   Wind: 13mph
Humidity: 81%   Direction: 140°SE
Pressure: 29.42"   Gusts: NA
Location:  43.8194°N, 123.274°W
Report Text: KEUG 251554Z 14011KT 10SM FEW025 FEW060 BKN080 BKN190 14/11 A2942 RMK AO2 SLP962 T01390106
Loading
Personal Weather Stations






























Interactive Weather Map
Tropical Storm Tracking
New forecast layout! Learn more

10-Day Weather Forecast

Advertisements
Track Severe Weather on mobile